Time;durP1;ratioP1;P1;durP2;ratioP2;P2;SDS_P1;SDS_P2;PMS_P1;PMS_P2;Temp;Humidity;BMP_temperature;BMP_pressure;BME280_temperature;BME280_humidity;BME280_pressure;Samples;Min_cycle;Max_cycle;Signal;HPM_P1;HPM_P2
2023/05/05 00:01:31;;;;;;;9.70;5.23;;;13.30;98.30;;;;;;5055143;28;20064;-73
2023/05/05 00:03:57;;;;;;;15.23;5.50;;;13.30;98.40;;;;;;5055301;28;20052;-73
2023/05/05 00:06:23;;;;;;;12.82;5.47;;;13.30;98.40;;;;;;5055089;28;20041;-74
2023/05/05 00:08:49;;;;;;;16.17;6.30;;;13.30;98.50;;;;;;5055187;28;20099;-73
2023/05/05 00:11:15;;;;;;;15.00;5.80;;;13.30;98.60;;;;;;5054992;28;20048;-74
2023/05/05 00:13:40;;;;;;;11.48;5.45;;;13.30;98.70;;;;;;5055012;28;20047;-73
2023/05/05 00:16:06;;;;;;;11.48;5.75;;;13.30;98.80;;;;;;5054845;28;20167;-72
2023/05/05 00:18:32;;;;;;;10.93;5.78;;;13.30;98.80;;;;;;5054923;28;20086;-73
2023/05/05 00:20:58;;;;;;;15.63;5.95;;;13.30;98.80;;;;;;5053820;28;20135;-73
2023/05/05 00:23:24;;;;;;;14.75;5.72;;;13.30;98.90;;;;;;5037157;28;20160;-75
2023/05/05 00:25:50;;;;;;;14.40;5.75;;;13.30;99.00;;;;;;5053819;28;20049;-74
2023/05/05 00:28:16;;;;;;;12.68;5.88;;;13.30;99.10;;;;;;5054837;28;20504;-73
2023/05/05 00:30:41;;;;;;;14.68;6.10;;;13.20;99.10;;;;;;5054628;28;20049;-73
2023/05/05 00:33:07;;;;;;;12.93;6.30;;;13.30;99.40;;;;;;5054608;28;20048;-74
2023/05/05 00:35:33;;;;;;;14.55;6.05;;;13.30;99.70;;;;;;5053632;28;20498;-73
2023/05/05 00:37:59;;;;;;;13.68;6.18;;;13.20;99.40;;;;;;5054578;28;20054;-74
2023/05/05 00:40:25;;;;;;;19.90;6.03;;;13.20;99.50;;;;;;5052921;28;20139;-73
2023/05/05 00:42:51;;;;;;;12.52;5.97;;;13.20;99.60;;;;;;5054598;28;20057;-74
2023/05/05 00:45:18;;;;;;;12.65;6.18;;;13.20;99.90;;;;;;5054331;28;20074;-74
2023/05/05 00:47:53;;;;;;;15.18;6.40;;;13.10;99.70;;;;;;5054332;28;20464;-72
2023/05/05 00:50:24;;;;;;;15.30;6.07;;;13.20;99.90;;;;;;5054519;28;20481;-73
2023/05/05 00:52:53;;;;;;;17.70;6.38;;;13.10;99.90;;;;;;5055134;28;20048;-74
2023/05/05 00:55:19;;;;;;;10.45;5.75;;;13.10;99.90;;;;;;5053636;28;20084;-72
2023/05/05 00:57:45;;;;;;;11.57;5.95;;;13.10;99.90;;;;;;5053084;28;20048;-73
2023/05/05 01:00:12;;;;;;;15.30;6.33;;;13.10;99.90;;;;;;5054078;28;20072;-73
2023/05/05 01:02:38;;;;;;;15.43;6.72;;;13.00;99.90;;;;;;5053982;28;20271;-73
2023/05/05 01:05:05;;;;;;;16.30;6.55;;;13.10;99.90;;;;;;5054008;28;20084;-73
2023/05/05 01:07:55;;;;;;;16.75;6.85;;;13.00;99.90;;;;;;5054180;28;20081;-73
2023/05/05 01:10:28;;;;;;;14.85;6.22;;;13.00;99.90;;;;;;5054022;28;20084;-74
2023/05/05 01:13:06;;;;;;;18.02;6.95;;;13.00;99.90;;;;;;5054037;28;20045;-73
2023/05/05 01:15:38;;;;;;;14.10;6.22;;;13.00;99.90;;;;;;5053623;28;20393;-73
2023/05/05 01:18:22;;;;;;;15.63;7.25;;;13.00;99.90;;;;;;5052618;28;20132;-73
2023/05/05 01:20:53;;;;;;;13.13;6.40;;;12.90;99.90;;;;;;5053752;28;20053;-74
2023/05/05 01:23:38;;;;;;;13.57;6.55;;;13.00;99.90;;;;;;5053762;28;20051;-72
2023/05/05 01:26:10;;;;;;;15.57;6.82;;;13.00;99.90;;;;;;5037016;28;20048;-74
2023/05/05 01:28:41;;;;;;;12.13;7.03;;;12.90;99.90;;;;;;5054018;28;20497;-74
2023/05/05 01:31:28;;;;;;;14.75;6.60;;;12.90;99.90;;;;;;5054466;28;20098;-72
2023/05/05 01:34:00;;;;;;;18.75;6.68;;;12.90;99.90;;;;;;5053990;28;20473;-74
2023/05/05 01:36:33;;;;;;;13.25;6.35;;;12.90;99.90;;;;;;5052366;28;20049;-74
2023/05/05 01:39:02;;;;;;;13.73;6.50;;;12.90;99.90;;;;;;5053544;28;20059;-72
2023/05/05 01:41:37;;;;;;;11.05;6.72;;;12.80;99.90;;;;;;5055052;28;20088;-73
2023/05/05 01:44:05;;;;;;;15.43;7.22;;;12.80;99.90;;;;;;5055721;28;20055;-73
2023/05/05 01:46:33;;;;;;;14.75;7.10;;;12.80;99.90;;;;;;5053756;28;20037;-72
2023/05/05 01:48:59;;;;;;;15.10;6.78;;;12.70;99.90;;;;;;5055497;28;20060;-73
2023/05/05 01:51:26;;;;;;;15.57;6.82;;;12.70;99.90;;;;;;5056229;28;20045;-72
2023/05/05 01:53:55;;;;;;;;;;;12.60;99.90;;;;;;5056111;28;20053;-74
2023/05/05 01:56:24;;;;;;;14.18;6.90;;;12.60;99.90;;;;;;5053639;28;19924;-74
2023/05/05 01:58:51;;;;;;;15.75;6.68;;;12.60;99.90;;;;;;5053515;28;20119;-73
2023/05/05 02:01:23;;;;;;;17.83;7.07;;;12.60;99.90;;;;;;5053779;28;20044;-75
2023/05/05 02:03:51;;;;;;;14.75;7.20;;;12.50;99.90;;;;;;5054087;28;20395;-73
2023/05/05 02:06:19;;;;;;;16.17;7.25;;;12.50;99.90;;;;;;5035981;28;20052;-74
2023/05/05 02:08:47;;;;;;;16.20;7.65;;;12.40;99.90;;;;;;5054355;28;20363;-74
2023/05/05 02:11:14;;;;;;;18.25;7.38;;;12.40;99.90;;;;;;5056163;28;20045;-74
2023/05/05 02:13:41;;;;;;;14.98;7.90;;;12.40;99.90;;;;;;5057208;28;20432;-75
2023/05/05 02:16:07;;;;;;;;;;;12.40;99.90;;;;;;5057559;28;20048;-74
2023/05/05 02:18:34;;;;;;;15.98;6.85;;;12.30;99.90;;;;;;5089925;28;19927;-73
2023/05/05 02:21:01;;;;;;;17.35;7.63;;;12.30;99.90;;;;;;5057938;28;20047;-75
2023/05/05 02:23:27;;;;;;;15.63;7.25;;;12.30;99.90;;;;;;5057079;28;20460;-73
2023/05/05 02:25:58;;;;;;;21.08;8.40;;;12.30;99.90;;;;;;5056813;28;20098;-74
2023/05/05 02:28:37;;;;;;;17.40;7.60;;;12.30;99.90;;;;;;5057031;28;20053;-74
2023/05/05 02:31:05;;;;;;;15.65;7.70;;;12.30;99.90;;;;;;5056149;28;20045;-75
2023/05/05 02:33:34;;;;;;;15.15;7.72;;;12.30;99.90;;;;;;5055352;28;20679;-75
2023/05/05 02:36:10;;;;;;;16.83;8.25;;;12.30;99.90;;;;;;5055559;28;20485;-73
2023/05/05 02:38:40;;;;;;;18.17;7.93;;;12.30;99.90;;;;;;5056801;28;20095;-74
2023/05/05 02:41:11;;;;;;;13.55;7.20;;;12.30;99.90;;;;;;5056689;28;20088;-73
2023/05/05 02:43:39;;;;;;;13.25;7.35;;;12.30;99.90;;;;;;5057423;28;20413;-74
2023/05/05 02:46:05;;;;;;;15.60;7.53;;;12.30;99.90;;;;;;5057214;28;20049;-73
2023/05/05 02:48:31;;;;;;;16.52;8.40;;;12.20;99.90;;;;;;5055502;28;20374;-74
2023/05/05 02:50:57;;;;;;;16.73;8.00;;;12.20;99.90;;;;;;5055459;28;20045;-74
2023/05/05 02:53:25;;;;;;;16.95;8.38;;;12.20;99.90;;;;;;5056508;28;20049;-74
2023/05/05 02:56:04;;;;;;;18.50;8.30;;;12.20;99.90;;;;;;5056527;28;20102;-75
2023/05/05 02:58:55;;;;;;;18.52;8.30;;;12.20;99.90;;;;;;5056492;28;20044;-75
2023/05/05 03:01:24;;;;;;;17.05;7.85;;;12.20;99.90;;;;;;5055429;28;20053;-74
2023/05/05 03:03:58;;;;;;;16.00;8.10;;;12.20;99.90;;;;;;5055277;28;20045;-74
2023/05/05 03:06:27;;;;;;;16.65;8.68;;;12.20;99.90;;;;;;5056470;28;20052;-74
2023/05/05 03:08:59;;;;;;;16.40;8.43;;;12.20;99.90;;;;;;5056211;28;20052;-74
2023/05/05 03:11:36;;;;;;;16.92;8.48;;;12.10;99.90;;;;;;5054969;28;20084;-73
2023/05/05 03:14:11;;;;;;;17.85;7.80;;;12.10;99.90;;;;;;5056011;28;20067;-74
2023/05/05 03:16:39;;;;;;;17.85;8.40;;;12.10;99.90;;;;;;5056040;28;20048;-74
2023/05/05 03:19:09;;;;;;;22.95;8.80;;;12.10;99.90;;;;;;5055988;28;20084;-74
2023/05/05 03:21:35;;;;;;;20.60;9.30;;;12.20;99.90;;;;;;5055857;28;20064;-75
2023/05/05 03:24:17;;;;;;;18.85;8.77;;;12.20;99.90;;;;;;5055957;28;20451;-75
2023/05/05 03:26:44;;;;;;;24.65;9.48;;;12.20;99.90;;;;;;5055385;28;20056;-74
2023/05/05 03:29:10;;;;;;;;;;;12.20;99.90;;;;;;5056316;28;20048;-74
2023/05/05 03:31:36;;;;;;;18.40;7.87;;;12.20;99.90;;;;;;5055849;28;20067;-75
2023/05/05 03:34:02;;;;;;;17.15;9.23;;;12.20;99.90;;;;;;5055804;28;20053;-74
2023/05/05 03:36:28;;;;;;;20.33;9.70;;;12.20;99.90;;;;;;5056180;28;20045;-74
2023/05/05 03:38:54;;;;;;;16.30;9.32;;;12.10;99.90;;;;;;5055445;28;20481;-73
2023/05/05 03:41:21;;;;;;;20.42;9.50;;;12.10;99.90;;;;;;5055316;28;20053;-73
2023/05/05 03:43:47;;;;;;;20.17;9.93;;;12.10;99.90;;;;;;5054667;28;20504;-72
2023/05/05 03:46:13;;;;;;;28.05;10.35;;;12.10;99.90;;;;;;5054753;28;20053;-74
2023/05/05 03:48:40;;;;;;;23.13;11.35;;;12.10;99.90;;;;;;5056022;28;20051;-73
2023/05/05 03:51:06;;;;;;;22.38;11.30;;;12.00;99.90;;;;;;5054412;28;20049;-74
2023/05/05 03:53:32;;;;;;;21.13;10.20;;;12.00;99.90;;;;;;5055984;28;20465;-75
2023/05/05 03:55:58;;;;;;;23.13;10.65;;;11.90;99.90;;;;;;5055396;28;20043;-73
2023/05/05 03:58:24;;;;;;;24.17;10.57;;;11.90;99.90;;;;;;5055546;28;20456;-73
2023/05/05 04:00:49;;;;;;;22.50;10.18;;;11.90;99.90;;;;;;5054055;28;20094;-74
2023/05/05 04:03:15;;;;;;;21.73;11.10;;;11.90;99.90;;;;;;5071202;28;20044;-73
2023/05/05 04:05:41;;;;;;;20.73;11.02;;;11.90;99.90;;;;;;5055128;28;20045;-75
2023/05/05 04:08:07;;;;;;;22.13;10.70;;;11.90;99.90;;;;;;5055402;28;20052;-74
2023/05/05 04:10:33;;;;;;;20.67;10.88;;;11.90;99.90;;;;;;5055773;28;20386;-73
2023/05/05 04:12:59;;;;;;;19.80;10.35;;;12.00;99.90;;;;;;5055226;28;20179;-74
2023/05/05 04:15:24;;;;;;;26.48;11.57;;;12.00;99.90;;;;;;5055380;28;20052;-74
2023/05/05 04:17:50;;;;;;;24.42;10.80;;;11.90;99.90;;;;;;5055035;28;20045;-75
2023/05/05 04:20:16;;;;;;;24.38;11.30;;;12.00;99.90;;;;;;5053960;28;20049;-73
2023/05/05 04:22:42;;;;;;;26.33;11.95;;;12.00;99.90;;;;;;5054875;28;20236;-74
2023/05/05 04:25:08;;;;;;;22.33;11.18;;;12.00;99.90;;;;;;5053561;28;20059;-75
2023/05/05 04:27:34;;;;;;;20.80;10.65;;;12.00;99.90;;;;;;5054750;28;20045;-72
2023/05/05 04:30:00;;;;;;;23.27;10.73;;;12.00;99.90;;;;;;5055249;28;20060;-73
2023/05/05 04:32:25;;;;;;;23.65;11.65;;;12.00;99.90;;;;;;5054225;28;20423;-75
2023/05/05 04:34:52;;;;;;;24.10;12.18;;;12.00;99.90;;;;;;5054492;28;20044;-74
2023/05/05 04:37:18;;;;;;;27.27;11.43;;;12.00;99.90;;;;;;5054562;28;20045;-74
2023/05/05 04:39:44;;;;;;;25.20;11.88;;;12.00;99.90;;;;;;5054122;28;20064;-73
2023/05/05 04:42:10;;;;;;;26.38;11.43;;;12.00;99.90;;;;;;5054711;28;20045;-74
2023/05/05 04:44:35;;;;;;;25.30;12.48;;;12.00;99.90;;;;;;5054962;28;20055;-74
2023/05/05 04:47:01;;;;;;;26.63;11.27;;;11.90;99.90;;;;;;5053150;28;20049;-74
2023/05/05 04:49:30;;;;;;;23.80;12.02;;;11.90;99.90;;;;;;5054812;28;20053;-74
2023/05/05 04:51:56;;;;;;;27.50;12.65;;;11.90;99.90;;;;;;5053832;28;20539;-74
2023/05/05 04:54:29;;;;;;;23.67;12.48;;;11.90;99.90;;;;;;5090257;27;20490;-74
2023/05/05 04:56:55;;;;;;;24.10;12.10;;;11.90;99.90;;;;;;5089711;28;20074;-74
2023/05/05 04:59:21;;;;;;;25.85;12.40;;;11.80;99.90;;;;;;5090173;28;20109;-74
2023/05/05 05:01:46;;;;;;;21.70;12.02;;;11.80;99.90;;;;;;5089700;28;20130;-73
2023/05/05 05:04:12;;;;;;;30.88;12.05;;;11.80;99.90;;;;;;5088923;28;20058;-73
2023/05/05 05:06:38;;;;;;;28.45;12.77;;;11.70;99.90;;;;;;5089735;28;20052;-74
2023/05/05 05:09:04;;;;;;;27.88;13.82;;;11.70;99.90;;;;;;5088276;28;20530;-75
2023/05/05 05:11:30;;;;;;;25.98;13.05;;;11.70;99.90;;;;;;5089856;28;20087;-73
2023/05/05 05:13:55;;;;;;;26.17;13.57;;;11.50;99.90;;;;;;5089291;28;20040;-73
2023/05/05 05:16:21;;;;;;;31.88;12.70;;;11.50;99.90;;;;;;5088687;28;20508;-74
2023/05/05 05:18:47;;;;;;;30.17;12.85;;;11.60;99.90;;;;;;5089266;28;20051;-74
2023/05/05 05:21:12;;;;;;;27.63;12.57;;;11.60;99.90;;;;;;5088399;28;20093;-74
2023/05/05 05:23:38;;;;;;;26.88;12.90;;;11.70;99.90;;;;;;5089932;28;20446;-74
2023/05/05 05:26:05;;;;;;;24.75;13.43;;;11.80;99.90;;;;;;5089243;28;20055;-75
2023/05/05 05:28:31;;;;;;;30.25;13.35;;;12.00;99.90;;;;;;5088925;28;20416;-73
2023/05/05 05:30:56;;;;;;;28.70;12.43;;;12.00;99.90;;;;;;5089193;28;20044;-74
2023/05/05 05:33:22;;;;;;;30.60;13.85;;;12.20;99.90;;;;;;5089368;28;20032;-74
2023/05/05 05:35:48;;;;;;;32.30;12.63;;;12.30;99.90;;;;;;5089225;28;20044;-74
2023/05/05 05:38:14;;;;;;;29.10;14.02;;;12.40;99.90;;;;;;5089498;28;20052;-74
2023/05/05 05:40:40;;;;;;;26.00;12.77;;;12.50;99.90;;;;;;5088309;28;20129;-74
2023/05/05 05:43:05;;;;;;;31.38;14.00;;;12.80;99.90;;;;;;5088744;28;20051;-74
2023/05/05 05:45:31;;;;;;;27.65;13.23;;;12.90;99.90;;;;;;5122451;27;20059;-74
2023/05/05 05:47:57;;;;;;;31.38;14.00;;;13.00;99.90;;;;;;5087684;28;20507;-74
2023/05/05 05:50:25;;;;;;;35.33;14.02;;;13.00;99.90;;;;;;5122022;27;20048;-75
2023/05/05 05:52:51;;;;;;;29.27;13.55;;;12.90;99.90;;;;;;5088865;28;20062;-74
2023/05/05 05:55:17;;;;;;;34.33;14.60;;;12.90;99.90;;;;;;5089252;28;20488;-75
2023/05/05 05:57:43;;;;;;;27.65;13.77;;;12.90;99.90;;;;;;5071664;28;20400;-75
2023/05/05 06:00:09;;;;;;;29.00;14.23;;;12.90;99.90;;;;;;5089412;28;20052;-76
2023/05/05 06:02:35;;;;;;;25.77;14.10;;;12.90;99.90;;;;;;5089597;28;20076;-75
2023/05/05 06:05:01;;;;;;;28.77;14.88;;;13.00;99.90;;;;;;5062128;28;20822;-74
2023/05/05 06:07:26;;;;;;;33.13;14.18;;;13.10;99.90;;;;;;5074390;28;20040;-74
2023/05/05 06:09:52;;;;;;;36.92;17.02;;;13.10;99.90;;;;;;5074476;28;20082;-75
2023/05/05 06:12:18;;;;;;;33.67;14.73;;;13.20;99.90;;;;;;5074836;28;20048;-75
2023/05/05 06:14:43;;;;;;;31.08;14.25;;;13.20;99.90;;;;;;5108019;28;20144;-74
2023/05/05 06:17:09;;;;;;;26.92;13.80;;;13.30;99.90;;;;;;5074818;28;20404;-74
2023/05/05 06:19:38;;;;;;;28.58;15.07;;;13.40;99.90;;;;;;5075084;28;20055;-75
2023/05/05 06:22:04;;;;;;;26.88;14.30;;;13.40;99.90;;;;;;5074839;28;20040;-74
2023/05/05 06:24:30;;;;;;;35.78;14.43;;;13.50;99.90;;;;;;5073973;28;20047;-75
2023/05/05 06:26:58;;;;;;;29.80;15.10;;;13.50;99.90;;;;;;5073834;28;20090;-76
2023/05/05 06:29:24;;;;;;;32.35;15.35;;;13.60;99.90;;;;;;5073696;28;20511;-75
2023/05/05 06:31:50;;;;;;;34.28;16.17;;;13.70;99.90;;;;;;5074884;28;20123;-75
2023/05/05 06:34:17;;;;;;;32.35;14.98;;;13.80;99.90;;;;;;5073026;28;20132;-74
2023/05/05 06:36:42;;;;;;;32.72;14.88;;;13.90;99.90;;;;;;5056959;28;20618;-74
2023/05/05 06:39:08;;;;;;;29.70;15.23;;;14.00;99.90;;;;;;5073420;28;20128;-74
2023/05/05 06:41:34;;;;;;;31.10;15.15;;;14.00;99.90;;;;;;5074981;28;20052;-74
2023/05/05 06:44:00;;;;;;;31.15;16.17;;;14.10;99.90;;;;;;5073029;28;20190;-74
2023/05/05 06:46:25;;;;;;;37.08;17.13;;;14.10;99.90;;;;;;5074510;28;20045;-73
2023/05/05 06:48:51;;;;;;;36.60;17.20;;;14.10;99.90;;;;;;5073197;28;20048;-74
2023/05/05 06:51:17;;;;;;;41.85;16.33;;;14.20;99.90;;;;;;5056292;28;20056;-74
2023/05/05 06:53:43;;;;;;;31.92;16.08;;;14.40;99.90;;;;;;5074653;28;20048;-74
2023/05/05 06:56:10;;;;;;;34.90;16.48;;;14.50;99.90;;;;;;5074101;28;20079;-75
2023/05/05 06:58:36;;;;;;;31.80;16.30;;;14.60;99.90;;;;;;5073620;28;20056;-73
2023/05/05 07:01:02;;;;;;;33.80;16.23;;;14.80;99.90;;;;;;5074230;28;20036;-75
2023/05/05 07:03:28;;;;;;;28.90;16.55;;;14.90;99.90;;;;;;5074249;28;20127;-73
2023/05/05 07:05:54;;;;;;;35.38;16.90;;;14.90;99.90;;;;;;5073175;28;20135;-74
2023/05/05 07:08:20;;;;;;;33.53;17.17;;;14.90;99.90;;;;;;5073932;28;20048;-74
2023/05/05 07:10:46;;;;;;;33.78;17.83;;;15.00;99.90;;;;;;5074191;28;20044;-76
2023/05/05 07:13:14;;;;;;;31.17;16.75;;;15.00;99.90;;;;;;5074478;28;20083;-74
2023/05/05 07:15:45;;;;;;;35.42;17.60;;;15.10;99.90;;;;;;5073835;28;20040;-74
2023/05/05 07:18:12;;;;;;;37.03;17.13;;;15.20;99.90;;;;;;5073498;28;20185;-74
2023/05/05 07:20:38;;;;;;;36.30;17.90;;;15.40;99.90;;;;;;5074570;28;20044;-75
2023/05/05 07:23:04;;;;;;;36.03;18.00;;;15.40;99.90;;;;;;5074108;28;20052;-74
2023/05/05 07:25:31;;;;;;;38.30;17.38;;;15.50;99.90;;;;;;5072870;28;20198;-75
2023/05/05 07:27:57;;;;;;;33.63;17.23;;;15.60;99.90;;;;;;5074023;28;20045;-74
2023/05/05 07:30:24;;;;;;;37.83;17.63;;;15.70;99.90;;;;;;5055918;28;20043;-75
2023/05/05 07:32:50;;;;;;;35.25;16.27;;;15.80;99.90;;;;;;5075414;28;20048;-75
2023/05/05 07:35:16;;;;;;;36.73;17.90;;;15.80;99.90;;;;;;5077248;28;20040;-73
2023/05/05 07:37:44;;;;;;;35.72;18.17;;;16.00;99.90;;;;;;5078747;28;20070;-74
2023/05/05 07:40:10;;;;;;;39.95;18.40;;;15.90;99.90;;;;;;5075925;28;20088;-75
2023/05/05 07:42:35;;;;;;;40.47;17.90;;;16.00;99.90;;;;;;5074802;28;20434;-74
2023/05/05 07:45:02;;;;;;;37.58;18.48;;;16.20;99.90;;;;;;5074707;28;20052;-74
2023/05/05 07:47:27;;;;;;;38.10;19.50;;;16.30;99.90;;;;;;5073136;28;20084;-75
2023/05/05 07:49:53;;;;;;;36.35;18.52;;;16.30;99.90;;;;;;5072774;28;20087;-74
2023/05/05 07:52:19;;;;;;;42.70;18.88;;;16.30;99.90;;;;;;5070451;28;20051;-74
2023/05/05 07:54:45;;;;;;;36.00;18.47;;;16.50;99.90;;;;;;5070828;28;20056;-75
2023/05/05 07:57:11;;;;;;;40.38;19.08;;;16.50;99.90;;;;;;5053855;28;20075;-74
2023/05/05 07:59:37;;;;;;;39.53;18.05;;;16.60;99.90;;;;;;5070876;28;20044;-74
2023/05/05 08:02:03;;;;;;;43.30;18.48;;;16.60;99.90;;;;;;5072230;28;20048;-74
2023/05/05 08:04:29;;;;;;;42.53;20.63;;;16.70;99.90;;;;;;5070869;28;20044;-73
2023/05/05 08:06:55;;;;;;;46.50;21.53;;;16.80;99.90;;;;;;5073111;28;20040;-75
2023/05/05 08:09:20;;;;;;;43.15;21.02;;;16.90;99.90;;;;;;5054894;28;20059;-73
2023/05/05 08:11:46;;;;;;;49.15;21.70;;;17.00;99.90;;;;;;5071732;28;20500;-74
2023/05/05 08:14:12;;;;;;;53.97;22.40;;;17.10;99.90;;;;;;5071683;28;20045;-73
2023/05/05 08:16:37;;;;;;;53.47;21.80;;;17.20;99.90;;;;;;5071426;28;20054;-74
2023/05/05 08:19:03;;;;;;;50.40;22.63;;;17.40;99.90;;;;;;5072636;28;20044;-74
2023/05/05 08:21:29;;;;;;;54.30;22.83;;;17.50;99.90;;;;;;5072341;28;20048;-71
2023/05/05 08:23:54;;;;;;;47.35;22.63;;;17.60;99.90;;;;;;5073031;28;20049;-73
2023/05/05 08:26:21;;;;;;;55.23;22.23;;;17.70;99.90;;;;;;5072392;28;20040;-72
2023/05/05 08:28:48;;;;;;;;;;;17.70;99.90;;;;;;5073040;28;20053;-74
2023/05/05 08:31:14;;;;;;;47.90;23.45;;;17.90;99.90;;;;;;5071481;28;19920;-72
2023/05/05 08:33:40;;;;;;;47.10;19.95;;;18.00;99.90;;;;;;5072489;28;20053;-73
2023/05/05 08:36:07;;;;;;;57.10;22.92;;;18.00;99.90;;;;;;5072713;28;20170;-71
2023/05/05 08:38:33;;;;;;;57.72;23.88;;;18.10;99.90;;;;;;5071176;28;20056;-73
2023/05/05 08:40:59;;;;;;;54.70;24.87;;;18.20;99.90;;;;;;5072647;28;20044;-75
2023/05/05 08:43:24;;;;;;;47.10;19.90;;;18.30;99.90;;;;;;5072167;28;20120;-74
2023/05/05 08:45:51;;;;;;;47.63;22.10;;;18.30;99.90;;;;;;5072508;28;20051;-76
2023/05/05 08:48:20;;;;;;;48.15;21.00;;;18.30;99.90;;;;;;5072473;28;20049;-73
2023/05/05 08:50:52;;;;;;;43.80;21.38;;;18.40;99.90;;;;;;5072329;28;20044;-72
2023/05/05 08:53:41;;;;;;;47.90;22.15;;;18.40;99.90;;;;;;5071454;28;20064;-72
2023/05/05 08:56:07;;;;;;;48.45;23.58;;;18.40;99.90;;;;;;5071665;28;20055;-75
2023/05/05 08:58:35;;;;;;;49.67;23.50;;;18.40;99.90;;;;;;5071878;28;20052;-74
2023/05/05 09:01:02;;;;;;;50.00;22.77;;;18.40;99.90;;;;;;5071535;28;20190;-75
2023/05/05 09:03:28;;;;;;;54.17;25.17;;;18.50;99.90;;;;;;5072106;28;20055;-74
2023/05/05 09:05:54;;;;;;;54.10;26.08;;;18.50;99.90;;;;;;5072611;28;20048;-73
2023/05/05 09:08:21;;;;;;;52.60;26.08;;;18.40;99.90;;;;;;5072519;28;20048;-75
2023/05/05 09:10:47;;;;;;;57.08;25.13;;;18.40;99.90;;;;;;5072169;28;20123;-75
2023/05/05 09:13:14;;;;;;;49.78;22.38;;;18.50;99.90;;;;;;5054272;28;20480;-75
2023/05/05 09:15:40;;;;;;;44.43;22.23;;;18.70;99.90;;;;;;5072024;28;20131;-74
2023/05/05 09:18:11;;;;;;;;;;;18.90;99.90;;;;;;5071620;28;20806;-73
2023/05/05 09:20:38;;;;;;;48.75;23.05;;;19.00;99.90;;;;;;5070744;28;20299;-74
2023/05/05 09:23:15;;;;;;;47.80;22.85;;;19.00;99.90;;;;;;5072098;28;20045;-72
2023/05/05 09:25:46;;;;;;;59.70;24.98;;;19.20;99.90;;;;;;5071657;28;20044;-73
2023/05/05 09:28:16;;;;;;;46.88;22.42;;;19.30;99.90;;;;;;5071054;28;20460;-74
2023/05/05 09:30:46;;;;;;;50.15;24.23;;;19.40;99.90;;;;;;5070777;28;20047;-75
2023/05/05 09:33:12;;;;;;;47.38;22.52;;;19.20;99.90;;;;;;5072680;28;20068;-74
2023/05/05 09:35:50;;;;;;;47.97;22.73;;;19.20;99.90;;;;;;5053944;28;20092;-74
2023/05/05 09:38:16;;;;;;;42.33;19.83;;;19.20;99.90;;;;;;5071921;28;20313;-74
2023/05/05 09:40:47;;;;;;;35.20;17.52;;;19.40;99.90;;;;;;5073442;28;20079;-73
2023/05/05 09:43:14;;;;;;;36.20;18.23;;;19.70;99.90;;;;;;5074782;28;20048;-74
2023/05/05 09:45:40;;;;;;;35.80;17.90;;;19.70;99.90;;;;;;5075246;28;20097;-74
2023/05/05 09:48:06;;;;;;;31.20;15.37;;;19.90;99.90;;;;;;5074347;28;20053;-73
2023/05/05 09:50:44;;;;;;;32.87;14.60;;;20.10;99.90;;;;;;5075054;28;20044;-73
2023/05/05 09:53:10;;;;;;;32.00;14.70;;;20.20;99.90;;;;;;5075232;28;20063;-74
2023/05/05 09:55:37;;;;;;;37.22;15.45;;;20.30;99.90;;;;;;5074847;28;20573;-75
2023/05/05 09:58:19;;;;;;;31.20;13.88;;;20.50;99.90;;;;;;5075503;28;20056;-74
2023/05/05 10:00:46;;;;;;;30.25;13.95;;;20.40;99.90;;;;;;5073782;28;20036;-76
2023/05/05 10:03:12;;;;;;;36.78;13.48;;;20.30;99.90;;;;;;5074271;28;20048;-73
2023/05/05 10:05:55;;;;;;;27.25;12.18;;;20.50;99.90;;;;;;5057138;28;20045;-73
2023/05/05 10:08:26;;;;;;;32.20;13.77;;;20.80;99.90;;;;;;5075651;28;20061;-73
2023/05/05 10:10:55;;;;;;;22.67;10.80;;;21.10;99.90;;;;;;5074650;28;20048;-73
2023/05/05 10:13:22;;;;;;;21.85;9.38;;;21.20;99.90;;;;;;5075437;28;20052;-73
2023/05/05 10:15:50;;;;;;;21.90;9.73;;;21.30;99.90;;;;;;5074673;28;20181;-75
2023/05/05 10:18:21;;;;;;;19.77;8.45;;;21.30;99.90;;;;;;5075321;28;20123;-73
2023/05/05 10:20:51;;;;;;;14.80;6.90;;;21.10;99.90;;;;;;5074889;28;20056;-73
2023/05/05 10:23:19;;;;;;;18.73;7.57;;;21.20;99.90;;;;;;5075337;28;20048;-74
2023/05/05 10:25:52;;;;;;;10.65;3.88;;;21.10;99.90;;;;;;5073795;28;20048;-73
2023/05/05 10:28:27;;;;;;;15.93;5.47;;;21.10;99.90;;;;;;5075404;28;20118;-75
2023/05/05 10:30:57;;;;;;;15.45;5.45;;;21.00;99.90;;;;;;5075023;28;20045;-73
2023/05/05 10:33:43;;;;;;;14.48;6.07;;;21.20;99.90;;;;;;5075197;28;20044;-72
2023/05/05 10:36:10;;;;;;;15.50;6.35;;;21.20;99.90;;;;;;5075746;28;20112;-74
2023/05/05 10:38:36;;;;;;;18.15;7.22;;;21.00;99.90;;;;;;5075238;28;20040;-75
2023/05/05 10:41:03;;;;;;;13.75;6.43;;;21.00;99.90;;;;;;5074791;28;20048;-76
2023/05/05 10:43:30;;;;;;;13.43;5.85;;;21.10;99.90;;;;;;5076856;28;20105;-76
2023/05/05 10:45:56;;;;;;;12.60;5.80;;;21.20;99.90;;;;;;5057869;28;20296;-74
2023/05/05 10:48:50;;;;;;;12.52;5.75;;;21.40;99.90;;;;;;5073978;28;20048;-75
2023/05/05 10:51:37;;;;;;;14.88;6.75;;;21.50;99.90;;;;;;5073626;28;20127;-74
2023/05/05 10:54:32;;;;;;;13.27;6.57;;;21.40;99.90;;;;;;5074710;28;20394;-76
2023/05/05 10:57:03;;;;;;;10.75;5.32;;;21.00;99.90;;;;;;5039017;28;20091;-74
2023/05/05 10:59:37;;;;;;;10.90;5.07;;;21.10;99.90;;;;;;5073575;28;20125;-76
2023/05/05 11:02:26;;;;;;;11.23;5.07;;;21.30;99.90;;;;;;5074128;28;20051;-75
2023/05/05 11:05:08;;;;;;;13.75;5.05;;;21.60;99.90;;;;;;5074030;28;20166;-77
2023/05/05 11:07:37;;;;;;;11.70;5.18;;;21.80;99.90;;;;;;5074216;28;20041;-76
2023/05/05 11:10:08;;;;;;;12.10;4.32;;;21.70;99.90;;;;;;5073857;28;20056;-76
2023/05/05 11:13:03;;;;;;;13.13;4.45;;;22.00;99.90;;;;;;5073888;28;20048;-74
2023/05/05 11:15:28;;;;;;;9.07;2.40;;;22.20;99.90;;;;;;5047386;28;20508;-74
2023/05/05 11:17:59;;;;;;;9.47;2.70;;;22.10;99.90;;;;;;5072659;28;20133;-74
2023/05/05 11:20:35;;;;;;;8.93;3.17;;;22.30;99.90;;;;;;5073886;28;20059;-76
2023/05/05 11:23:03;;;;;;;13.32;3.75;;;22.30;99.90;;;;;;5073297;28;20040;-75
2023/05/05 11:25:35;;;;;;;11.75;3.45;;;22.20;99.50;;;;;;5074159;28;20052;-74
2023/05/05 11:28:12;;;;;;;10.25;3.33;;;22.30;99.60;;;;;;5073420;28;20439;-75
2023/05/05 11:30:57;;;;;;;11.13;3.72;;;22.30;99.50;;;;;;5072537;28;20088;-75
2023/05/05 11:33:29;;;;;;;12.65;3.63;;;22.20;99.20;;;;;;5073307;28;20052;-76
2023/05/05 11:36:01;;;;;;;12.35;3.55;;;22.20;99.00;;;;;;5073303;28;20502;-73
2023/05/05 11:38:30;;;;;;;11.57;3.13;;;22.00;99.30;;;;;;5073516;28;20040;-73
2023/05/05 11:41:32;;;;;;;9.13;2.80;;;21.90;99.30;;;;;;5072951;28;20492;-74
2023/05/05 11:44:11;;;;;;;10.15;3.47;;;21.90;98.90;;;;;;5060585;28;20079;-76
2023/05/05 11:47:03;;;;;;;11.45;3.95;;;21.60;99.10;;;;;;5073275;28;20037;-75
2023/05/05 11:49:32;;;;;;;9.45;4.20;;;21.70;99.40;;;;;;5063398;28;20053;-76
2023/05/05 11:52:00;;;;;;;9.32;3.65;;;21.50;98.80;;;;;;5072980;28;20127;-77
2023/05/05 11:54:26;;;;;;;9.27;3.30;;;21.60;99.20;;;;;;5073499;28;20064;-74
2023/05/05 11:56:53;;;;;;;11.10;3.45;;;21.80;99.40;;;;;;5071689;28;20044;-76
2023/05/05 11:59:19;;;;;;;10.30;2.80;;;21.70;98.20;;;;;;5070731;28;20135;-78
2023/05/05 12:01:45;;;;;;;10.33;3.23;;;21.60;98.90;;;;;;5071921;28;20139;-76
2023/05/05 12:04:12;;;;;;;8.47;3.30;;;21.80;99.00;;;;;;5105478;28;20067;-75
2023/05/05 12:06:38;;;;;;;10.63;3.40;;;21.60;97.50;;;;;;5071717;28;20075;-75
2023/05/05 12:09:18;;;;;;;11.32;3.33;;;21.70;98.40;;;;;;5072363;28;20056;-76
2023/05/05 12:11:56;;;;;;;23.02;4.97;;;21.60;98.50;;;;;;5073222;28;20059;-75
2023/05/05 12:14:24;;;;;;;36.80;7.78;;;21.60;98.90;;;;;;5072903;28;20084;-77
2023/05/05 12:16:57;;;;;;;18.40;5.10;;;21.10;99.20;;;;;;5071239;28;20437;-74
2023/05/05 12:19:23;;;;;;;8.82;3.78;;;21.00;99.30;;;;;;5072652;28;20044;-76
2023/05/05 12:21:50;;;;;;;13.68;3.97;;;21.00;99.80;;;;;;5073064;28;20071;-76
2023/05/05 12:24:15;;;;;;;10.52;3.63;;;20.80;99.80;;;;;;5071698;28;20044;-73
2023/05/05 12:26:41;;;;;;;12.30;4.10;;;20.70;99.90;;;;;;5073087;28;20078;-75
2023/05/05 12:29:07;;;;;;;10.10;3.60;;;20.20;99.90;;;;;;5071407;28;20044;-74
2023/05/05 12:31:37;;;;;;;12.23;4.40;;;19.90;99.90;;;;;;5072744;28;20049;-74
2023/05/05 12:34:04;;;;;;;15.25;4.70;;;19.60;99.90;;;;;;5071069;28;20401;-73
2023/05/05 12:36:32;;;;;;;13.10;5.43;;;19.30;99.90;;;;;;5071840;28;20056;-74
2023/05/05 12:38:58;;;;;;;10.68;2.97;;;19.00;99.90;;;;;;5072373;28;20454;-74
2023/05/05 12:41:24;;;;;;;9.40;2.87;;;18.50;99.90;;;;;;5072675;28;20048;-73